sensor_id;sensor_type;location;lat;lon;timestamp;P1;durP1;ratioP1;P2;durP2;ratioP2
40635;SDS011;26642;55.766;37.828;2023-01-24T00:00:39;14.23;;;8.20;;
40635;SDS011;26642;55.766;37.828;2023-01-24T00:03:05;16.35;;;8.48;;
40635;SDS011;26642;55.766;37.828;2023-01-24T00:05:37;14.93;;;8.43;;
40635;SDS011;26642;55.766;37.828;2023-01-24T00:08:07;13.85;;;8.52;;
40635;SDS011;26642;55.766;37.828;2023-01-24T00:10:34;12.00;;;7.50;;
40635;SDS011;26642;55.766;37.828;2023-01-24T00:13:01;13.35;;;7.88;;
40635;SDS011;26642;55.766;37.828;2023-01-24T00:15:27;13.48;;;7.85;;
40635;SDS011;26642;55.766;37.828;2023-01-24T00:17:53;13.40;;;8.35;;
40635;SDS011;26642;55.766;37.828;2023-01-24T00:20:19;13.38;;;7.85;;
40635;SDS011;26642;55.766;37.828;2023-01-24T00:22:45;12.82;;;8.10;;
40635;SDS011;26642;55.766;37.828;2023-01-24T00:25:11;15.18;;;8.20;;
40635;SDS011;26642;55.766;37.828;2023-01-24T00:27:37;13.75;;;7.95;;
40635;SDS011;26642;55.766;37.828;2023-01-24T00:30:04;14.00;;;7.75;;
40635;SDS011;26642;55.766;37.828;2023-01-24T00:32:31;12.77;;;7.57;;
40635;SDS011;26642;55.766;37.828;2023-01-24T00:34:57;11.27;;;7.57;;
40635;SDS011;26642;55.766;37.828;2023-01-24T00:37:24;13.90;;;8.25;;
40635;SDS011;26642;55.766;37.828;2023-01-24T00:39:50;15.05;;;7.80;;
40635;SDS011;26642;55.766;37.828;2023-01-24T00:42:16;14.70;;;8.63;;
40635;SDS011;26642;55.766;37.828;2023-01-24T00:44:42;12.90;;;8.15;;
40635;SDS011;26642;55.766;37.828;2023-01-24T00:47:08;14.23;;;7.93;;
40635;SDS011;26642;55.766;37.828;2023-01-24T00:49:36;14.27;;;8.60;;
40635;SDS011;26642;55.766;37.828;2023-01-24T00:52:02;17.33;;;8.48;;
40635;SDS011;26642;55.766;37.828;2023-01-24T00:54:27;16.02;;;7.47;;
40635;SDS011;26642;55.766;37.828;2023-01-24T00:56:53;12.48;;;7.93;;
40635;SDS011;26642;55.766;37.828;2023-01-24T00:59:19;15.65;;;7.22;;
40635;SDS011;26642;55.766;37.828;2023-01-24T01:01:45;14.45;;;7.63;;
40635;SDS011;26642;55.766;37.828;2023-01-24T01:04:11;16.15;;;8.30;;
40635;SDS011;26642;55.766;37.828;2023-01-24T01:06:37;12.93;;;8.10;;
40635;SDS011;26642;55.766;37.828;2023-01-24T01:09:03;13.68;;;8.27;;
40635;SDS011;26642;55.766;37.828;2023-01-24T01:11:29;12.65;;;7.78;;
40635;SDS011;26642;55.766;37.828;2023-01-24T01:13:57;11.90;;;7.22;;
40635;SDS011;26642;55.766;37.828;2023-01-24T01:16:24;13.27;;;7.95;;
40635;SDS011;26642;55.766;37.828;2023-01-24T01:18:50;14.90;;;8.20;;
40635;SDS011;26642;55.766;37.828;2023-01-24T01:21:20;13.75;;;7.82;;
40635;SDS011;26642;55.766;37.828;2023-01-24T01:23:46;11.25;;;7.15;;
40635;SDS011;26642;55.766;37.828;2023-01-24T01:26:14;14.15;;;7.50;;
40635;SDS011;26642;55.766;37.828;2023-01-24T01:28:42;15.35;;;8.63;;
40635;SDS011;26642;55.766;37.828;2023-01-24T01:31:08;11.93;;;7.07;;
40635;SDS011;26642;55.766;37.828;2023-01-24T01:33:34;13.68;;;7.88;;
40635;SDS011;26642;55.766;37.828;2023-01-24T01:36:00;12.57;;;7.85;;
40635;SDS011;26642;55.766;37.828;2023-01-24T01:38:26;12.60;;;6.85;;
40635;SDS011;26642;55.766;37.828;2023-01-24T01:40:54;14.02;;;7.40;;
40635;SDS011;26642;55.766;37.828;2023-01-24T01:43:21;12.15;;;7.32;;
40635;SDS011;26642;55.766;37.828;2023-01-24T01:45:52;12.02;;;7.15;;
40635;SDS011;26642;55.766;37.828;2023-01-24T01:48:34;11.93;;;7.10;;
40635;SDS011;26642;55.766;37.828;2023-01-24T01:51:03;11.23;;;6.75;;
40635;SDS011;26642;55.766;37.828;2023-01-24T01:53:37;10.35;;;6.90;;
40635;SDS011;26642;55.766;37.828;2023-01-24T01:56:10;12.68;;;7.20;;
40635;SDS011;26642;55.766;37.828;2023-01-24T01:58:45;12.45;;;7.38;;
40635;SDS011;26642;55.766;37.828;2023-01-24T02:01:11;13.65;;;7.30;;
40635;SDS011;26642;55.766;37.828;2023-01-24T02:03:45;12.45;;;7.20;;
40635;SDS011;26642;55.766;37.828;2023-01-24T02:06:25;11.30;;;7.20;;
40635;SDS011;26642;55.766;37.828;2023-01-24T02:08:58;11.00;;;6.80;;
40635;SDS011;26642;55.766;37.828;2023-01-24T02:11:26;12.48;;;7.43;;
40635;SDS011;26642;55.766;37.828;2023-01-24T02:14:06;14.10;;;7.10;;
40635;SDS011;26642;55.766;37.828;2023-01-24T02:16:52;13.32;;;6.93;;
40635;SDS011;26642;55.766;37.828;2023-01-24T02:22:19;13.10;;;7.63;;
40635;SDS011;26642;55.766;37.828;2023-01-24T02:24:57;11.73;;;6.95;;
40635;SDS011;26642;55.766;37.828;2023-01-24T02:27:35;11.18;;;7.50;;
40635;SDS011;26642;55.766;37.828;2023-01-24T02:30:01;12.90;;;7.07;;
40635;SDS011;26642;55.766;37.828;2023-01-24T02:32:27;11.95;;;6.47;;
40635;SDS011;26642;55.766;37.828;2023-01-24T02:34:54;13.32;;;6.85;;
40635;SDS011;26642;55.766;37.828;2023-01-24T02:37:23;11.60;;;6.95;;
40635;SDS011;26642;55.766;37.828;2023-01-24T02:39:57;9.60;;;6.28;;
40635;SDS011;26642;55.766;37.828;2023-01-24T02:42:35;11.63;;;7.30;;
40635;SDS011;26642;55.766;37.828;2023-01-24T02:45:16;13.52;;;6.82;;
40635;SDS011;26642;55.766;37.828;2023-01-24T02:47:55;12.73;;;7.10;;
40635;SDS011;26642;55.766;37.828;2023-01-24T02:50:23;11.60;;;6.40;;
40635;SDS011;26642;55.766;37.828;2023-01-24T02:52:52;12.43;;;6.78;;
40635;SDS011;26642;55.766;37.828;2023-01-24T02:55:37;17.27;;;6.82;;
40635;SDS011;26642;55.766;37.828;2023-01-24T02:58:23;12.68;;;6.70;;
40635;SDS011;26642;55.766;37.828;2023-01-24T03:00:49;13.77;;;6.53;;
40635;SDS011;26642;55.766;37.828;2023-01-24T03:03:16;11.80;;;6.10;;
40635;SDS011;26642;55.766;37.828;2023-01-24T03:05:42;10.35;;;6.82;;
40635;SDS011;26642;55.766;37.828;2023-01-24T03:08:33;9.93;;;5.97;;
40635;SDS011;26642;55.766;37.828;2023-01-24T03:11:02;10.63;;;6.57;;
40635;SDS011;26642;55.766;37.828;2023-01-24T03:13:30;12.15;;;6.38;;
40635;SDS011;26642;55.766;37.828;2023-01-24T03:16:15;9.75;;;5.78;;
40635;SDS011;26642;55.766;37.828;2023-01-24T03:19:01;11.10;;;6.00;;
40635;SDS011;26642;55.766;37.828;2023-01-24T03:21:45;12.20;;;6.15;;
40635;SDS011;26642;55.766;37.828;2023-01-24T03:24:29;10.10;;;6.32;;
40635;SDS011;26642;55.766;37.828;2023-01-24T03:27:14;10.43;;;6.20;;
40635;SDS011;26642;55.766;37.828;2023-01-24T03:30:00;10.35;;;6.05;;
40635;SDS011;26642;55.766;37.828;2023-01-24T03:32:45;12.57;;;6.30;;
40635;SDS011;26642;55.766;37.828;2023-01-24T03:35:31;11.50;;;5.95;;
40635;SDS011;26642;55.766;37.828;2023-01-24T03:37:58;10.68;;;6.28;;
40635;SDS011;26642;55.766;37.828;2023-01-24T03:40:42;10.90;;;5.95;;
40635;SDS011;26642;55.766;37.828;2023-01-24T03:43:09;10.80;;;5.97;;
40635;SDS011;26642;55.766;37.828;2023-01-24T03:45:38;10.38;;;4.97;;
40635;SDS011;26642;55.766;37.828;2023-01-24T03:48:09;9.25;;;5.05;;
40635;SDS011;26642;55.766;37.828;2023-01-24T03:50:39;9.43;;;5.35;;
40635;SDS011;26642;55.766;37.828;2023-01-24T03:53:29;12.05;;;5.57;;
40635;SDS011;26642;55.766;37.828;2023-01-24T03:55:59;8.18;;;4.90;;
40635;SDS011;26642;55.766;37.828;2023-01-24T03:58:33;10.38;;;5.20;;
40635;SDS011;26642;55.766;37.828;2023-01-24T04:01:03;10.15;;;5.57;;
40635;SDS011;26642;55.766;37.828;2023-01-24T04:03:58;8.85;;;5.18;;
40635;SDS011;26642;55.766;37.828;2023-01-24T04:06:24;10.52;;;5.95;;
40635;SDS011;26642;55.766;37.828;2023-01-24T04:08:51;8.95;;;5.55;;
40635;SDS011;26642;55.766;37.828;2023-01-24T04:11:18;8.55;;;5.35;;
40635;SDS011;26642;55.766;37.828;2023-01-24T04:13:48;13.65;;;5.55;;
40635;SDS011;26642;55.766;37.828;2023-01-24T04:16:14;12.35;;;5.88;;
40635;SDS011;26642;55.766;37.828;2023-01-24T04:18:50;8.82;;;5.47;;
40635;SDS011;26642;55.766;37.828;2023-01-24T04:21:17;8.85;;;5.18;;
40635;SDS011;26642;55.766;37.828;2023-01-24T04:23:43;9.13;;;5.47;;
40635;SDS011;26642;55.766;37.828;2023-01-24T04:26:10;8.90;;;4.90;;
40635;SDS011;26642;55.766;37.828;2023-01-24T04:28:36;8.45;;;5.00;;
40635;SDS011;26642;55.766;37.828;2023-01-24T04:31:03;8.75;;;5.10;;
40635;SDS011;26642;55.766;37.828;2023-01-24T04:33:51;8.93;;;5.40;;
40635;SDS011;26642;55.766;37.828;2023-01-24T04:36:17;9.23;;;5.35;;
40635;SDS011;26642;55.766;37.828;2023-01-24T04:38:43;8.55;;;5.07;;
40635;SDS011;26642;55.766;37.828;2023-01-24T04:41:21;9.30;;;5.35;;
40635;SDS011;26642;55.766;37.828;2023-01-24T04:43:48;11.73;;;5.30;;
40635;SDS011;26642;55.766;37.828;2023-01-24T04:46:15;11.57;;;5.93;;
40635;SDS011;26642;55.766;37.828;2023-01-24T04:48:50;10.25;;;5.85;;
40635;SDS011;26642;55.766;37.828;2023-01-24T04:51:17;14.45;;;6.65;;
40635;SDS011;26642;55.766;37.828;2023-01-24T04:53:45;13.25;;;6.95;;
40635;SDS011;26642;55.766;37.828;2023-01-24T04:56:15;11.43;;;5.93;;
40635;SDS011;26642;55.766;37.828;2023-01-24T04:58:42;11.15;;;6.18;;
40635;SDS011;26642;55.766;37.828;2023-01-24T05:01:08;11.73;;;6.50;;
40635;SDS011;26642;55.766;37.828;2023-01-24T05:03:42;13.23;;;6.13;;
40635;SDS011;26642;55.766;37.828;2023-01-24T05:06:08;12.52;;;5.55;;
40635;SDS011;26642;55.766;37.828;2023-01-24T05:08:34;10.98;;;6.28;;
40635;SDS011;26642;55.766;37.828;2023-01-24T05:11:02;9.75;;;5.50;;
40635;SDS011;26642;55.766;37.828;2023-01-24T05:13:32;13.27;;;6.38;;
40635;SDS011;26642;55.766;37.828;2023-01-24T05:15:58;10.27;;;5.28;;
40635;SDS011;26642;55.766;37.828;2023-01-24T05:18:25;13.40;;;6.25;;
40635;SDS011;26642;55.766;37.828;2023-01-24T05:20:51;11.00;;;6.22;;
40635;SDS011;26642;55.766;37.828;2023-01-24T05:23:17;11.57;;;6.22;;
40635;SDS011;26642;55.766;37.828;2023-01-24T05:25:46;10.48;;;5.88;;
40635;SDS011;26642;55.766;37.828;2023-01-24T05:28:12;9.65;;;5.50;;
40635;SDS011;26642;55.766;37.828;2023-01-24T05:30:42;11.35;;;6.38;;
40635;SDS011;26642;55.766;37.828;2023-01-24T05:33:23;10.50;;;5.57;;
40635;SDS011;26642;55.766;37.828;2023-01-24T05:35:49;10.35;;;6.20;;
40635;SDS011;26642;55.766;37.828;2023-01-24T05:38:26;11.60;;;5.80;;
40635;SDS011;26642;55.766;37.828;2023-01-24T05:40:52;9.40;;;5.75;;
40635;SDS011;26642;55.766;37.828;2023-01-24T05:43:18;9.73;;;6.13;;
40635;SDS011;26642;55.766;37.828;2023-01-24T05:45:45;8.95;;;5.43;;
40635;SDS011;26642;55.766;37.828;2023-01-24T05:48:11;12.25;;;6.07;;
40635;SDS011;26642;55.766;37.828;2023-01-24T05:50:39;10.88;;;6.20;;
40635;SDS011;26642;55.766;37.828;2023-01-24T05:53:10;12.85;;;6.15;;
40635;SDS011;26642;55.766;37.828;2023-01-24T05:55:36;11.38;;;6.00;;
40635;SDS011;26642;55.766;37.828;2023-01-24T05:58:02;8.60;;;5.28;;
40635;SDS011;26642;55.766;37.828;2023-01-24T06:00:51;12.50;;;4.80;;
40635;SDS011;26642;55.766;37.828;2023-01-24T06:03:34;7.68;;;4.72;;
40635;SDS011;26642;55.766;37.828;2023-01-24T06:06:02;9.55;;;5.53;;
40635;SDS011;26642;55.766;37.828;2023-01-24T06:08:29;9.68;;;5.38;;
40635;SDS011;26642;55.766;37.828;2023-01-24T06:10:55;7.28;;;4.13;;
40635;SDS011;26642;55.766;37.828;2023-01-24T06:13:27;9.63;;;5.07;;
40635;SDS011;26642;55.766;37.828;2023-01-24T06:16:00;10.20;;;5.13;;
40635;SDS011;26642;55.766;37.828;2023-01-24T06:18:28;8.32;;;4.68;;
40635;SDS011;26642;55.766;37.828;2023-01-24T06:20:55;9.20;;;5.30;;
40635;SDS011;26642;55.766;37.828;2023-01-24T06:23:25;8.95;;;5.35;;
40635;SDS011;26642;55.766;37.828;2023-01-24T06:25:57;7.88;;;4.75;;
40635;SDS011;26642;55.766;37.828;2023-01-24T06:28:23;9.73;;;4.90;;
40635;SDS011;26642;55.766;37.828;2023-01-24T06:31:00;9.73;;;5.13;;
40635;SDS011;26642;55.766;37.828;2023-01-24T06:33:35;10.23;;;4.68;;
40635;SDS011;26642;55.766;37.828;2023-01-24T06:38:46;7.43;;;4.65;;
40635;SDS011;26642;55.766;37.828;2023-01-24T06:41:15;7.78;;;5.20;;
40635;SDS011;26642;55.766;37.828;2023-01-24T06:43:42;9.80;;;5.13;;
40635;SDS011;26642;55.766;37.828;2023-01-24T06:46:10;14.88;;;9.02;;
40635;SDS011;26642;55.766;37.828;2023-01-24T06:48:37;15.98;;;9.35;;
40635;SDS011;26642;55.766;37.828;2023-01-24T06:51:03;12.82;;;7.80;;
40635;SDS011;26642;55.766;37.828;2023-01-24T06:53:31;10.20;;;6.18;;
40635;SDS011;26642;55.766;37.828;2023-01-24T06:55:58;12.90;;;6.63;;
40635;SDS011;26642;55.766;37.828;2023-01-24T06:58:25;10.30;;;5.70;;
40635;SDS011;26642;55.766;37.828;2023-01-24T07:00:53;9.43;;;5.57;;
40635;SDS011;26642;55.766;37.828;2023-01-24T07:03:19;8.32;;;5.13;;
40635;SDS011;26642;55.766;37.828;2023-01-24T07:05:45;8.38;;;4.95;;
40635;SDS011;26642;55.766;37.828;2023-01-24T07:08:13;7.72;;;5.05;;
40635;SDS011;26642;55.766;37.828;2023-01-24T07:10:39;8.55;;;5.55;;
40635;SDS011;26642;55.766;37.828;2023-01-24T07:13:05;7.70;;;5.03;;
40635;SDS011;26642;55.766;37.828;2023-01-24T07:15:31;8.27;;;4.80;;
40635;SDS011;26642;55.766;37.828;2023-01-24T07:18:05;10.02;;;4.75;;
40635;SDS011;26642;55.766;37.828;2023-01-24T07:20:36;7.70;;;4.55;;
40635;SDS011;26642;55.766;37.828;2023-01-24T07:23:03;8.43;;;4.35;;
40635;SDS011;26642;55.766;37.828;2023-01-24T07:25:29;7.57;;;5.20;;
40635;SDS011;26642;55.766;37.828;2023-01-24T07:27:56;8.13;;;4.68;;
40635;SDS011;26642;55.766;37.828;2023-01-24T07:30:22;8.25;;;4.40;;
40635;SDS011;26642;55.766;37.828;2023-01-24T07:32:48;9.80;;;5.13;;
40635;SDS011;26642;55.766;37.828;2023-01-24T07:35:14;8.98;;;4.60;;
40635;SDS011;26642;55.766;37.828;2023-01-24T07:37:40;8.07;;;4.68;;
40635;SDS011;26642;55.766;37.828;2023-01-24T07:40:06;8.35;;;4.63;;
40635;SDS011;26642;55.766;37.828;2023-01-24T07:42:33;6.60;;;4.00;;
40635;SDS011;26642;55.766;37.828;2023-01-24T07:44:59;7.63;;;4.53;;
40635;SDS011;26642;55.766;37.828;2023-01-24T07:47:26;6.00;;;3.97;;
40635;SDS011;26642;55.766;37.828;2023-01-24T07:49:52;7.45;;;4.82;;
40635;SDS011;26642;55.766;37.828;2023-01-24T07:52:18;8.60;;;3.92;;
40635;SDS011;26642;55.766;37.828;2023-01-24T07:54:44;8.52;;;4.15;;
40635;SDS011;26642;55.766;37.828;2023-01-24T07:57:09;6.60;;;3.83;;
40635;SDS011;26642;55.766;37.828;2023-01-24T07:59:35;5.40;;;3.67;;
40635;SDS011;26642;55.766;37.828;2023-01-24T08:02:01;6.78;;;3.90;;
40635;SDS011;26642;55.766;37.828;2023-01-24T08:04:27;6.85;;;4.00;;
40635;SDS011;26642;55.766;37.828;2023-01-24T08:06:53;6.93;;;3.95;;
40635;SDS011;26642;55.766;37.828;2023-01-24T08:09:37;7.88;;;4.75;;
40635;SDS011;26642;55.766;37.828;2023-01-24T08:12:03;6.78;;;3.95;;
40635;SDS011;26642;55.766;37.828;2023-01-24T08:14:29;7.68;;;4.05;;
40635;SDS011;26642;55.766;37.828;2023-01-24T08:16:55;6.55;;;4.18;;
40635;SDS011;26642;55.766;37.828;2023-01-24T08:19:21;6.85;;;3.92;;
40635;SDS011;26642;55.766;37.828;2023-01-24T08:21:47;7.45;;;4.63;;
40635;SDS011;26642;55.766;37.828;2023-01-24T08:24:13;7.13;;;4.15;;
40635;SDS011;26642;55.766;37.828;2023-01-24T08:26:39;6.90;;;4.28;;
40635;SDS011;26642;55.766;37.828;2023-01-24T08:29:05;6.05;;;3.88;;
40635;SDS011;26642;55.766;37.828;2023-01-24T08:31:31;6.55;;;4.20;;
40635;SDS011;26642;55.766;37.828;2023-01-24T08:33:57;5.97;;;3.38;;
40635;SDS011;26642;55.766;37.828;2023-01-24T08:36:23;7.20;;;4.28;;
40635;SDS011;26642;55.766;37.828;2023-01-24T08:38:49;7.15;;;4.20;;
40635;SDS011;26642;55.766;37.828;2023-01-24T08:41:15;6.47;;;3.95;;
40635;SDS011;26642;55.766;37.828;2023-01-24T08:43:41;6.07;;;3.65;;
40635;SDS011;26642;55.766;37.828;2023-01-24T08:46:07;8.10;;;4.38;;
40635;SDS011;26642;55.766;37.828;2023-01-24T08:48:33;8.20;;;4.20;;
40635;SDS011;26642;55.766;37.828;2023-01-24T08:51:01;8.95;;;4.38;;
40635;SDS011;26642;55.766;37.828;2023-01-24T08:53:28;7.32;;;3.80;;
40635;SDS011;26642;55.766;37.828;2023-01-24T08:55:54;8.38;;;4.70;;
40635;SDS011;26642;55.766;37.828;2023-01-24T08:58:20;7.35;;;4.22;;
40635;SDS011;26642;55.766;37.828;2023-01-24T09:00:47;9.52;;;4.53;;
40635;SDS011;26642;55.766;37.828;2023-01-24T09:03:14;6.20;;;4.50;;
40635;SDS011;26642;55.766;37.828;2023-01-24T09:05:42;8.27;;;4.38;;
40635;SDS011;26642;55.766;37.828;2023-01-24T09:08:08;7.90;;;3.95;;
40635;SDS011;26642;55.766;37.828;2023-01-24T09:10:35;9.35;;;4.85;;
40635;SDS011;26642;55.766;37.828;2023-01-24T09:13:01;7.45;;;4.80;;
40635;SDS011;26642;55.766;37.828;2023-01-24T09:15:29;7.70;;;4.82;;
40635;SDS011;26642;55.766;37.828;2023-01-24T09:17:55;7.72;;;4.72;;
40635;SDS011;26642;55.766;37.828;2023-01-24T09:20:24;9.63;;;4.78;;
40635;SDS011;26642;55.766;37.828;2023-01-24T09:22:51;7.57;;;4.70;;
40635;SDS011;26642;55.766;37.828;2023-01-24T09:25:16;8.38;;;4.85;;
40635;SDS011;26642;55.766;37.828;2023-01-24T09:27:42;11.45;;;4.25;;
40635;SDS011;26642;55.766;37.828;2023-01-24T09:30:09;9.15;;;4.90;;
40635;SDS011;26642;55.766;37.828;2023-01-24T09:32:35;7.38;;;4.65;;
40635;SDS011;26642;55.766;37.828;2023-01-24T09:35:02;6.75;;;4.65;;
40635;SDS011;26642;55.766;37.828;2023-01-24T09:37:28;8.65;;;5.03;;
40635;SDS011;26642;55.766;37.828;2023-01-24T09:39:54;7.70;;;4.32;;
40635;SDS011;26642;55.766;37.828;2023-01-24T09:45:07;7.90;;;4.63;;
40635;SDS011;26642;55.766;37.828;2023-01-24T09:50:21;7.88;;;4.88;;
40635;SDS011;26642;55.766;37.828;2023-01-24T09:52:57;9.40;;;4.35;;
40635;SDS011;26642;55.766;37.828;2023-01-24T09:58:00;7.93;;;4.72;;
40635;SDS011;26642;55.766;37.828;2023-01-24T10:00:54;10.15;;;4.70;;
40635;SDS011;26642;55.766;37.828;2023-01-24T10:03:21;7.13;;;4.38;;
40635;SDS011;26642;55.766;37.828;2023-01-24T10:05:49;7.18;;;4.78;;
40635;SDS011;26642;55.766;37.828;2023-01-24T10:08:19;7.78;;;4.80;;
40635;SDS011;26642;55.766;37.828;2023-01-24T10:24:23;6.80;;;4.20;;
40635;SDS011;26642;55.766;37.828;2023-01-24T10:26:54;7.07;;;4.10;;
40635;SDS011;26642;55.766;37.828;2023-01-24T10:29:22;7.15;;;4.65;;
40635;SDS011;26642;55.766;37.828;2023-01-24T10:34:42;8.05;;;4.45;;
40635;SDS011;26642;55.766;37.828;2023-01-24T10:40:14;9.10;;;4.82;;
40635;SDS011;26642;55.766;37.828;2023-01-24T10:42:41;6.97;;;4.80;;
40635;SDS011;26642;55.766;37.828;2023-01-24T10:45:21;7.75;;;4.32;;
40635;SDS011;26642;55.766;37.828;2023-01-24T10:51:17;7.82;;;4.75;;
40635;SDS011;26642;55.766;37.828;2023-01-24T10:53:45;7.88;;;4.50;;
40635;SDS011;26642;55.766;37.828;2023-01-24T10:56:12;8.48;;;4.30;;
40635;SDS011;26642;55.766;37.828;2023-01-24T11:01:31;7.68;;;4.13;;
40635;SDS011;26642;55.766;37.828;2023-01-24T11:04:14;6.97;;;3.80;;
40635;SDS011;26642;55.766;37.828;2023-01-24T11:06:45;6.88;;;4.30;;
40635;SDS011;26642;55.766;37.828;2023-01-24T11:09:14;7.15;;;4.53;;
40635;SDS011;26642;55.766;37.828;2023-01-24T11:11:43;6.68;;;4.32;;
40635;SDS011;26642;55.766;37.828;2023-01-24T11:14:15;8.38;;;4.47;;
40635;SDS011;26642;55.766;37.828;2023-01-24T11:16:45;6.68;;;3.97;;
40635;SDS011;26642;55.766;37.828;2023-01-24T11:19:32;6.22;;;4.20;;
40635;SDS011;26642;55.766;37.828;2023-01-24T11:22:01;5.68;;;4.25;;
40635;SDS011;26642;55.766;37.828;2023-01-24T11:24:48;6.00;;;4.00;;
40635;SDS011;26642;55.766;37.828;2023-01-24T11:27:15;7.53;;;4.47;;
40635;SDS011;26642;55.766;37.828;2023-01-24T11:29:41;6.80;;;4.30;;
40635;SDS011;26642;55.766;37.828;2023-01-24T11:35:10;7.28;;;4.47;;
40635;SDS011;26642;55.766;37.828;2023-01-24T11:40:39;6.80;;;4.50;;
40635;SDS011;26642;55.766;37.828;2023-01-24T11:43:48;6.60;;;4.53;;
40635;SDS011;26642;55.766;37.828;2023-01-24T11:46:37;6.10;;;3.97;;
40635;SDS011;26642;55.766;37.828;2023-01-24T12:02:59;7.28;;;4.35;;
40635;SDS011;26642;55.766;37.828;2023-01-24T12:13:42;6.18;;;4.03;;
40635;SDS011;26642;55.766;37.828;2023-01-24T12:19:22;6.60;;;4.35;;
40635;SDS011;26642;55.766;37.828;2023-01-24T12:22:00;6.78;;;3.88;;
40635;SDS011;26642;55.766;37.828;2023-01-24T12:24:33;6.72;;;3.80;;
40635;SDS011;26642;55.766;37.828;2023-01-24T12:27:06;5.90;;;3.80;;
40635;SDS011;26642;55.766;37.828;2023-01-24T12:29:41;7.00;;;3.60;;
40635;SDS011;26642;55.766;37.828;2023-01-24T12:37:26;7.88;;;4.28;;
40635;SDS011;26642;55.766;37.828;2023-01-24T12:45:28;5.03;;;2.85;;
40635;SDS011;26642;55.766;37.828;2023-01-24T12:50:55;5.65;;;3.00;;
40635;SDS011;26642;55.766;37.828;2023-01-24T12:53:24;4.57;;;2.95;;
40635;SDS011;26642;55.766;37.828;2023-01-24T12:56:15;5.75;;;3.40;;
40635;SDS011;26642;55.766;37.828;2023-01-24T12:58:47;6.38;;;3.83;;
40635;SDS011;26642;55.766;37.828;2023-01-24T13:03:54;6.13;;;3.17;;
40635;SDS011;26642;55.766;37.828;2023-01-24T13:06:45;4.90;;;3.33;;
40635;SDS011;26642;55.766;37.828;2023-01-24T13:12:16;5.70;;;3.47;;
40635;SDS011;26642;55.766;37.828;2023-01-24T13:14:49;3.70;;;2.70;;
40635;SDS011;26642;55.766;37.828;2023-01-24T13:34:31;3.55;;;2.90;;
40635;SDS011;26642;55.766;37.828;2023-01-24T13:37:00;3.47;;;2.50;;
40635;SDS011;26642;55.766;37.828;2023-01-24T13:39:32;3.63;;;2.83;;
40635;SDS011;26642;55.766;37.828;2023-01-24T13:42:23;4.32;;;3.03;;
40635;SDS011;26642;55.766;37.828;2023-01-24T13:44:56;3.97;;;3.00;;
40635;SDS011;26642;55.766;37.828;2023-01-24T13:47:23;3.53;;;2.70;;
40635;SDS011;26642;55.766;37.828;2023-01-24T13:54:59;5.13;;;2.85;;
40635;SDS011;26642;55.766;37.828;2023-01-24T13:57:27;3.53;;;2.92;;
40635;SDS011;26642;55.766;37.828;2023-01-24T14:08:14;6.20;;;2.50;;
40635;SDS011;26642;55.766;37.828;2023-01-24T14:10:51;4.57;;;2.80;;
40635;SDS011;26642;55.766;37.828;2023-01-24T14:21:44;3.92;;;2.53;;
40635;SDS011;26642;55.766;37.828;2023-01-24T14:27:18;3.35;;;2.55;;
40635;SDS011;26642;55.766;37.828;2023-01-24T14:29:49;3.30;;;2.60;;
40635;SDS011;26642;55.766;37.828;2023-01-24T14:32:20;5.65;;;3.08;;
40635;SDS011;26642;55.766;37.828;2023-01-24T14:35:31;3.58;;;2.58;;
40635;SDS011;26642;55.766;37.828;2023-01-24T14:40:44;4.07;;;2.20;;
40635;SDS011;26642;55.766;37.828;2023-01-24T14:43:16;3.25;;;2.45;;
40635;SDS011;26642;55.766;37.828;2023-01-24T14:45:43;4.57;;;2.50;;
40635;SDS011;26642;55.766;37.828;2023-01-24T14:48:45;4.78;;;2.53;;
40635;SDS011;26642;55.766;37.828;2023-01-24T14:51:05;3.78;;;2.25;;
40635;SDS011;26642;55.766;37.828;2023-01-24T14:53:32;3.22;;;2.55;;
40635;SDS011;26642;55.766;37.828;2023-01-24T14:56:00;3.38;;;2.78;;
40635;SDS011;26642;55.766;37.828;2023-01-24T14:58:35;3.58;;;2.33;;
40635;SDS011;26642;55.766;37.828;2023-01-24T15:01:02;4.10;;;2.50;;
40635;SDS011;26642;55.766;37.828;2023-01-24T15:03:29;4.80;;;2.47;;
40635;SDS011;26642;55.766;37.828;2023-01-24T15:06:02;5.15;;;3.20;;
40635;SDS011;26642;55.766;37.828;2023-01-24T15:08:30;4.43;;;2.90;;
40635;SDS011;26642;55.766;37.828;2023-01-24T15:11:03;4.13;;;2.60;;
40635;SDS011;26642;55.766;37.828;2023-01-24T15:13:32;3.80;;;2.93;;
40635;SDS011;26642;55.766;37.828;2023-01-24T15:16:08;3.65;;;2.60;;
40635;SDS011;26642;55.766;37.828;2023-01-24T15:18:49;4.35;;;2.78;;
40635;SDS011;26642;55.766;37.828;2023-01-24T15:21:39;4.03;;;3.00;;
40635;SDS011;26642;55.766;37.828;2023-01-24T15:24:05;4.20;;;3.10;;
40635;SDS011;26642;55.766;37.828;2023-01-24T15:26:57;4.45;;;3.00;;
40635;SDS011;26642;55.766;37.828;2023-01-24T15:34:46;4.22;;;2.60;;
40635;SDS011;26642;55.766;37.828;2023-01-24T15:37:13;4.45;;;2.90;;
40635;SDS011;26642;55.766;37.828;2023-01-24T15:39:40;4.50;;;2.72;;
40635;SDS011;26642;55.766;37.828;2023-01-24T15:42:16;4.03;;;3.05;;
40635;SDS011;26642;55.766;37.828;2023-01-24T15:45:02;4.93;;;2.63;;
40635;SDS011;26642;55.766;37.828;2023-01-24T15:47:29;3.35;;;2.80;;
40635;SDS011;26642;55.766;37.828;2023-01-24T15:50:18;4.38;;;2.85;;
40635;SDS011;26642;55.766;37.828;2023-01-24T15:53:21;4.10;;;2.83;;
40635;SDS011;26642;55.766;37.828;2023-01-24T15:55:51;3.92;;;2.47;;
40635;SDS011;26642;55.766;37.828;2023-01-24T15:58:18;4.25;;;2.88;;
40635;SDS011;26642;55.766;37.828;2023-01-24T16:00:54;3.80;;;2.78;;
40635;SDS011;26642;55.766;37.828;2023-01-24T16:03:24;4.20;;;2.63;;
40635;SDS011;26642;55.766;37.828;2023-01-24T16:05:50;7.55;;;2.90;;
40635;SDS011;26642;55.766;37.828;2023-01-24T16:08:16;4.03;;;2.60;;
40635;SDS011;26642;55.766;37.828;2023-01-24T16:10:44;5.20;;;2.60;;
40635;SDS011;26642;55.766;37.828;2023-01-24T16:13:27;4.93;;;2.80;;
40635;SDS011;26642;55.766;37.828;2023-01-24T16:16:04;3.92;;;2.83;;
40635;SDS011;26642;55.766;37.828;2023-01-24T16:18:31;4.30;;;2.70;;
40635;SDS011;26642;55.766;37.828;2023-01-24T16:20:57;3.88;;;2.92;;
40635;SDS011;26642;55.766;37.828;2023-01-24T16:23:23;5.60;;;2.65;;
40635;SDS011;26642;55.766;37.828;2023-01-24T16:25:50;4.18;;;2.47;;
40635;SDS011;26642;55.766;37.828;2023-01-24T16:28:21;4.18;;;2.80;;
40635;SDS011;26642;55.766;37.828;2023-01-24T16:30:49;3.58;;;2.83;;
40635;SDS011;26642;55.766;37.828;2023-01-24T16:33:17;4.43;;;2.70;;
40635;SDS011;26642;55.766;37.828;2023-01-24T16:35:44;4.07;;;3.15;;
40635;SDS011;26642;55.766;37.828;2023-01-24T16:38:11;3.78;;;3.10;;
40635;SDS011;26642;55.766;37.828;2023-01-24T16:40:38;5.72;;;3.33;;
40635;SDS011;26642;55.766;37.828;2023-01-24T16:43:05;5.05;;;3.22;;
40635;SDS011;26642;55.766;37.828;2023-01-24T16:45:32;5.80;;;2.70;;
40635;SDS011;26642;55.766;37.828;2023-01-24T16:47:59;5.07;;;3.13;;
40635;SDS011;26642;55.766;37.828;2023-01-24T16:50:25;5.47;;;3.40;;
40635;SDS011;26642;55.766;37.828;2023-01-24T16:52:52;4.25;;;2.92;;
40635;SDS011;26642;55.766;37.828;2023-01-24T16:55:18;3.88;;;2.85;;
40635;SDS011;26642;55.766;37.828;2023-01-24T16:57:44;5.38;;;3.10;;
40635;SDS011;26642;55.766;37.828;2023-01-24T17:00:11;3.95;;;2.88;;
40635;SDS011;26642;55.766;37.828;2023-01-24T17:02:38;5.05;;;3.15;;
40635;SDS011;26642;55.766;37.828;2023-01-24T17:05:05;6.22;;;3.28;;
40635;SDS011;26642;55.766;37.828;2023-01-24T17:07:31;3.72;;;2.90;;
40635;SDS011;26642;55.766;37.828;2023-01-24T17:09:57;4.18;;;2.85;;